createdAt,value
2019-03-27T00:01:11.294Z,42.90
2019-03-27T00:07:56.385Z,43.70
2019-03-27T00:14:41.310Z,43.40
2019-03-27T00:21:27.168Z,43.80
2019-03-27T00:28:12.449Z,43.50
2019-03-27T00:34:57.294Z,43.70
2019-03-27T00:41:42.147Z,44.30
2019-03-27T00:48:27.398Z,44.00
2019-03-27T00:55:12.791Z,44.50
2019-03-27T01:01:57.639Z,44.20
2019-03-27T01:08:42.558Z,43.80
2019-03-27T01:15:39.132Z,45.50
2019-03-27T01:22:15.442Z,45.60
2019-03-27T01:29:00.301Z,45.20
2019-03-27T01:35:45.159Z,45.20
2019-03-27T01:42:30.149Z,46.10
2019-03-27T01:49:14.998Z,46.90
2019-03-27T01:55:59.859Z,46.00
2019-03-27T02:02:44.724Z,46.30
2019-03-27T02:09:29.578Z,46.80
2019-03-27T02:16:14.435Z,47.60
2019-03-27T02:22:59.291Z,48.50
2019-03-27T02:29:44.157Z,48.60
2019-03-27T02:36:29.080Z,48.20
2019-03-27T02:43:13.944Z,48.50
2019-03-27T02:49:58.826Z,48.80
2019-03-27T02:56:43.757Z,48.60
2019-03-27T03:03:29.686Z,48.90
2019-03-27T03:10:15.371Z,50.70
2019-03-27T03:17:00.234Z,50.50
2019-03-27T03:23:45.255Z,49.00
2019-03-27T03:30:30.582Z,49.90
2019-03-27T03:37:16.487Z,49.60
2019-03-27T03:44:01.422Z,49.50
2019-03-27T03:50:46.586Z,49.50
2019-03-27T03:57:31.787Z,50.70
2019-03-27T04:04:18.689Z,51.00
2019-03-27T04:11:03.632Z,51.40
2019-03-27T04:17:48.568Z,51.60
2019-03-27T04:24:33.504Z,52.50
2019-03-27T04:31:18.507Z,52.90
2019-03-27T04:38:03.372Z,53.00
2019-03-27T04:44:48.236Z,53.60
2019-03-27T04:51:33.283Z,53.90
2019-03-27T04:58:18.143Z,54.40
2019-03-27T05:05:03.474Z,54.50
2019-03-27T05:11:49.409Z,54.70
2019-03-27T05:18:34.271Z,54.90
2019-03-27T05:25:19.198Z,54.60
2019-03-27T05:32:04.063Z,54.50
2019-03-27T05:38:48.930Z,54.10
2019-03-27T05:45:33.791Z,53.60
2019-03-27T05:52:18.723Z,52.70
2019-03-27T05:59:03.664Z,53.40
2019-03-27T06:05:48.603Z,52.90
2019-03-27T06:12:33.467Z,52.10
2019-03-27T06:19:18.327Z,50.80
2019-03-27T06:26:03.751Z,50.40
2019-03-27T06:32:48.880Z,50.00
2019-03-27T06:39:33.811Z,48.50
2019-03-27T06:46:18.740Z,46.80
2019-03-27T06:53:03.609Z,45.90
2019-03-27T06:59:48.535Z,43.80
2019-03-27T07:06:33.394Z,44.00
2019-03-27T07:13:18.254Z,44.90
2019-03-27T07:20:04.260Z,44.30
2019-03-27T07:26:49.200Z,44.40
2019-03-27T07:33:34.131Z,43.90
2019-03-27T07:40:19.005Z,44.30
2019-03-27T07:47:04.007Z,41.80
2019-03-27T07:53:48.881Z,41.40
2019-03-27T08:00:33.810Z,40.00
2019-03-27T08:07:26.806Z,39.20
2019-03-27T08:14:05.516Z,38.80
2019-03-27T08:20:50.942Z,36.40
2019-03-27T08:27:35.810Z,32.00
2019-03-27T08:34:20.685Z,28.70
2019-03-27T08:41:05.559Z,28.60
2019-03-27T08:47:50.428Z,27.60
2019-03-27T08:54:35.432Z,30.00
2019-03-27T09:01:20.355Z,28.40
2019-03-27T09:08:05.226Z,26.50
2019-03-27T09:14:50.094Z,24.60
2019-03-27T09:21:34.964Z,23.70
2019-03-27T09:28:19.834Z,23.20
2019-03-27T09:35:05.746Z,23.00
2019-03-27T09:41:50.691Z,22.00
2019-03-27T09:48:35.571Z,20.90
2019-03-27T09:55:20.507Z,21.30
2019-03-27T10:02:05.515Z,21.90
2019-03-27T10:08:50.386Z,23.00
2019-03-27T10:15:35.310Z,21.60
2019-03-27T10:22:20.190Z,20.80
2019-03-27T10:29:05.125Z,19.70
2019-03-27T10:35:50.276Z,18.90
2019-03-27T10:42:35.235Z,20.80
2019-03-27T10:49:21.172Z,21.60
2019-03-27T10:56:06.040Z,20.50
2019-03-27T11:02:50.911Z,22.90
2019-03-27T11:09:35.799Z,24.40
2019-03-27T11:16:20.675Z,25.60
2019-03-27T11:23:06.014Z,25.40
2019-03-27T11:29:50.884Z,25.30
2019-03-27T11:36:37.506Z,25.80
2019-03-27T11:43:24.673Z,26.00
2019-03-27T11:50:10.314Z,26.70
2019-03-27T11:56:55.237Z,27.70
2019-03-27T12:03:41.644Z,29.30
2019-03-27T12:10:26.813Z,28.50
2019-03-27T12:17:11.969Z,26.80
2019-03-27T12:23:58.566Z,26.50
2019-03-27T12:30:44.499Z,27.70
2019-03-27T12:37:29.350Z,28.50
2019-03-27T12:44:15.240Z,29.40
2019-03-27T12:51:11.974Z,29.30
2019-03-27T12:57:47.019Z,28.20
2019-03-27T13:04:31.880Z,28.10
2019-03-27T13:11:16.731Z,28.10
2019-03-27T13:18:01.832Z,27.40
2019-03-27T13:24:46.700Z,27.20
2019-03-27T13:31:31.572Z,26.50
2019-03-27T13:38:16.986Z,26.90
2019-03-27T13:45:02.208Z,26.30
2019-03-27T13:51:47.208Z,26.30
2019-03-27T13:58:32.067Z,26.80
2019-03-27T14:05:17.601Z,27.50
2019-03-27T14:12:03.034Z,27.80
2019-03-27T14:18:49.059Z,27.60
2019-03-27T14:25:34.643Z,26.60
2019-03-27T14:32:19.511Z,27.10
2019-03-27T14:39:06.109Z,27.60
2019-03-27T14:45:51.026Z,27.60
2019-03-27T14:52:35.891Z,26.80
2019-03-27T14:59:20.748Z,26.40
2019-03-27T15:06:06.023Z,26.30
2019-03-27T15:12:51.109Z,26.80
2019-03-27T15:19:36.104Z,27.00
2019-03-27T15:26:21.207Z,26.60
2019-03-27T15:33:06.062Z,26.80
2019-03-27T15:39:51.213Z,26.60
2019-03-27T15:46:36.215Z,26.60
2019-03-27T15:53:21.347Z,26.50
2019-03-27T16:00:07.586Z,26.50
2019-03-27T16:06:53.148Z,26.60
2019-03-27T16:13:38.486Z,27.20
2019-03-27T16:20:23.725Z,26.90
2019-03-27T16:27:09.006Z,27.10
2019-03-27T16:33:55.007Z,27.00
2019-03-27T16:40:44.519Z,26.90
2019-03-27T16:47:29.587Z,27.10
2019-03-27T16:54:14.598Z,27.20
2019-03-27T17:01:01.364Z,27.10
2019-03-27T17:07:46.391Z,26.70
2019-03-27T17:14:31.268Z,27.10
2019-03-27T17:21:16.163Z,27.30
2019-03-27T17:28:03.029Z,27.50
2019-03-27T17:34:47.958Z,28.00
2019-03-27T17:41:32.819Z,29.00
2019-03-27T17:48:18.913Z,29.90
2019-03-27T17:55:06.157Z,30.30
2019-03-27T18:01:51.084Z,30.80
2019-03-27T18:08:36.030Z,30.90
2019-03-27T18:15:21.227Z,31.00
2019-03-27T18:22:07.873Z,31.40
2019-03-27T18:28:52.972Z,32.20
2019-03-27T18:35:37.822Z,33.50
2019-03-27T18:42:22.687Z,33.90
2019-03-27T18:49:10.272Z,37.20
2019-03-27T18:55:54.161Z,38.50
2019-03-27T19:02:39.175Z,39.20
2019-03-27T19:09:26.208Z,40.50
2019-03-27T19:16:11.362Z,42.40
2019-03-27T19:22:56.235Z,41.60
2019-03-27T19:29:41.078Z,42.00
2019-03-27T19:36:27.751Z,42.10
2019-03-27T19:43:14.508Z,42.10
2019-03-27T19:49:59.464Z,43.50
2019-03-27T19:56:44.767Z,44.60
2019-03-27T20:03:30.002Z,46.00
2019-03-27T20:10:15.371Z,45.80
2019-03-27T20:17:00.359Z,45.70
2019-03-27T20:23:45.453Z,48.90
2019-03-27T20:30:30.519Z,50.00
2019-03-27T20:37:15.434Z,49.70
2019-03-27T20:44:00.640Z,49.30
2019-03-27T20:50:46.535Z,51.30
2019-03-27T20:57:31.600Z,50.60
2019-03-27T21:04:16.463Z,51.50
2019-03-27T21:11:01.441Z,52.50
2019-03-27T21:17:46.558Z,53.20
2019-03-27T21:24:31.538Z,55.00
2019-03-27T21:31:16.423Z,56.10
2019-03-27T21:38:01.836Z,55.80
2019-03-27T21:44:47.215Z,56.90
2019-03-27T21:51:32.067Z,58.10
2019-03-27T21:58:16.932Z,58.30
2019-03-27T22:05:02.238Z,56.80
2019-03-27T22:11:47.278Z,59.80
2019-03-27T22:18:32.153Z,61.10
2019-03-27T22:25:17.062Z,61.20
2019-03-27T22:32:01.914Z,61.10
2019-03-27T22:38:47.595Z,61.50
2019-03-27T22:45:33.719Z,62.00
2019-03-27T22:52:18.711Z,62.40
2019-03-27T22:59:03.800Z,63.60
2019-03-27T23:05:49.640Z,64.20
2019-03-27T23:12:34.776Z,65.30
2019-03-27T23:19:20.580Z,66.30
2019-03-27T23:26:06.904Z,66.00
2019-03-27T23:32:51.862Z,66.90
2019-03-27T23:39:36.711Z,68.30
2019-03-27T23:46:23.007Z,67.60
2019-03-27T23:53:08.025Z,69.10
2019-03-27T23:59:52.993Z,69.60
